»·PEaware :: N5112G KBUR-KLAS

N5112G :: KBUR-KLAS

FLIGHT INFORMATION

Flight Status: Arrived
Operator: Privately registered:
United States
More flights under this callsign
Pilot: James H. (28678)
Aircraft: CESSNA 172 SKYHAWK
(C172)
More flights by this aircraft type
Origin: KBUR Bob Hope-Burbank
United States
Destination: KLAS McCarran Intl
United States
More flights between these airports :: More routes between these airports
Route: +VNY3 DAG CRESO4
File this flight plan on PilotEdge
Remarks:
Altitude:
(Current/Filed)
11,000ft
Speed:
(Current/Filed)
105kts
Departed: 18-Nov-20 11:33 AM
Arrived: 18-Nov-20 02:15 PM
Distance/Time
Traveled:
193nm/2:42
Distance/Time
To Go:
Arrived

Flight Plot

Page will automatically refresh every two minutes.

Flight plan parsing failed; only flown route is shown


Map Options




Map Legend


Flown Route
Filed Route
Departure Airport
Arrival Airport
Navaid (VOR, NDB)
Fix

Horizontal Profiles

Position Reports

Time Latitude Longitude Heading Altitude Ground
Speed
18-Nov-20 11:31 34.134305 -118.428815 224 4029ft 118kts
18-Nov-20 11:32 34.112528 -118.458944 263 4441ft 105kts
18-Nov-20 11:33 34.133601 -118.474010 344 5183ft 92kts
18-Nov-20 11:34 34.158841 -118.478404 353 5904ft 88kts
18-Nov-20 11:35 34.182108 -118.481900 350 6629ft 79kts
18-Nov-20 11:36 34.203932 -118.486142 349 7240ft 79kts
18-Nov-20 11:37 34.225944 -118.489925 352 7810ft 80kts
18-Nov-20 11:38 34.229256 -118.512607 256 8344ft 81kts
18-Nov-20 11:39 34.228324 -118.517474 254 8433ft 82kts
18-Nov-20 12:09 34.198614 -118.368858 177 726ft 0kts
18-Nov-20 12:10 34.198584 -118.368855 174 726ft 4kts
18-Nov-20 12:11 34.196808 -118.349813 117 1323ft 71kts
18-Nov-20 12:12 34.181478 -118.359770 223 2218ft 72kts
18-Nov-20 12:13 34.167459 -118.377555 229 3053ft 74kts
18-Nov-20 12:14 34.176286 -118.391031 351 3844ft 74kts
18-Nov-20 12:15 34.196863 -118.394747 349 4618ft 75kts
18-Nov-20 12:16 34.217773 -118.398037 354 5424ft 76kts
18-Nov-20 12:17 34.238875 -118.402099 353 6188ft 77kts
18-Nov-20 12:18 34.260294 -118.405719 352 6909ft 78kts
18-Nov-20 12:19 34.282103 -118.409098 351 7602ft 79kts
18-Nov-20 12:20 34.304042 -118.413101 352 8259ft 80kts
18-Nov-20 12:22 34.326299 -118.416394 339 8869ft 83kts
18-Nov-20 12:23 34.345713 -118.430766 323 9478ft 81kts
18-Nov-20 12:24 34.365015 -118.445680 329 10022ft 83kts
18-Nov-20 12:25 34.385021 -118.459885 328 10557ft 83kts
18-Nov-20 12:26 34.405957 -118.473561 334 10919ft 102kts
18-Nov-20 12:27 34.424886 -118.454227 66 11057ft 120kts
18-Nov-20 12:28 34.438991 -118.415740 67 11047ft 127kts
18-Nov-20 12:29 34.450898 -118.375205 69 11047ft 128kts
18-Nov-20 12:30 34.463080 -118.334852 70 11047ft 128kts
18-Nov-20 12:31 34.480806 -118.302681 51 11047ft 128kts
18-Nov-20 12:32 34.502845 -118.268622 51 11047ft 128kts
18-Nov-20 12:33 34.524258 -118.234188 54 11047ft 128kts
18-Nov-20 12:34 34.545156 -118.199410 51 11047ft 128kts
18-Nov-20 12:35 34.567160 -118.165378 52 11047ft 128kts
18-Nov-20 12:36 34.588609 -118.131004 52 11047ft 128kts
18-Nov-20 12:37 34.609801 -118.096216 53 11047ft 128kts
18-Nov-20 12:37 34.627319 -118.067091 53 11047ft 128kts
18-Nov-20 12:39 34.635931 -118.018210 80 11047ft 128kts
18-Nov-20 12:39 34.640671 -117.982550 80 11047ft 128kts
18-Nov-20 12:41 34.645625 -117.932520 82 11047ft 128kts
18-Nov-20 12:41 34.649341 -117.896716 82 11047ft 128kts
18-Nov-20 12:43 34.654755 -117.846801 81 11047ft 128kts
18-Nov-20 12:43 34.658772 -117.810935 82 11047ft 128kts
18-Nov-20 12:44 34.663232 -117.768130 82 11047ft 128kts
18-Nov-20 12:45 34.672557 -117.726430 72 11047ft 128kts
18-Nov-20 12:46 34.683098 -117.685031 72 11047ft 128kts
18-Nov-20 12:47 34.693646 -117.643697 72 11047ft 128kts
18-Nov-20 12:48 34.704399 -117.602431 71 11047ft 128kts
18-Nov-20 12:49 34.715543 -117.561333 71 11047ft 128kts
18-Nov-20 12:50 34.726668 -117.520256 72 11047ft 128kts
18-Nov-20 12:51 34.736904 -117.478790 72 11047ft 128kts
18-Nov-20 12:52 34.747510 -117.437296 72 11047ft 128kts
18-Nov-20 12:53 34.758080 -117.395957 72 11047ft 128kts
18-Nov-20 12:54 34.768665 -117.354574 72 11047ft 128kts
18-Nov-20 12:55 34.779261 -117.313158 72 11047ft 127kts
18-Nov-20 12:56 34.789381 -117.271873 73 11047ft 127kts
18-Nov-20 12:57 34.799430 -117.230486 72 11047ft 127kts
18-Nov-20 12:58 34.810003 -117.189184 72 11047ft 127kts
18-Nov-20 12:59 34.820578 -117.147905 72 11047ft 127kts
18-Nov-20 13:00 34.831124 -117.106754 72 11047ft 127kts
18-Nov-20 13:01 34.841718 -117.065427 72 11047ft 127kts
18-Nov-20 13:02 34.852274 -117.024261 72 11047ft 127kts
18-Nov-20 13:03 34.862367 -116.982767 73 11047ft 127kts
18-Nov-20 13:04 34.872672 -116.941501 72 11047ft 127kts
18-Nov-20 13:05 34.883270 -116.900210 72 11047ft 127kts
18-Nov-20 13:06 34.893840 -116.859045 72 11047ft 127kts
18-Nov-20 13:07 34.904446 -116.817751 72 11047ft 127kts
18-Nov-20 13:08 34.915058 -116.776446 72 11047ft 127kts
18-Nov-20 13:09 34.924294 -116.734644 75 11047ft 127kts
18-Nov-20 13:10 34.933357 -116.692901 74 11047ft 127kts
18-Nov-20 13:11 34.942787 -116.651250 73 11047ft 127kts
18-Nov-20 13:12 34.953321 -116.609837 72 11047ft 127kts
18-Nov-20 13:13 34.965159 -116.569104 62 11048ft 127kts
18-Nov-20 13:14 34.981960 -116.531136 61 11047ft 127kts
18-Nov-20 13:15 34.999240 -116.493187 60 11047ft 127kts
18-Nov-20 13:16 35.016644 -116.455556 60 11047ft 127kts
18-Nov-20 13:17 35.033642 -116.417506 61 11047ft 127kts
18-Nov-20 13:18 35.050580 -116.379344 61 11047ft 127kts
18-Nov-20 13:19 35.067535 -116.341144 61 11047ft 127kts
18-Nov-20 13:20 35.084437 -116.303064 61 11047ft 127kts
18-Nov-20 13:21 35.101368 -116.264921 61 11047ft 127kts
18-Nov-20 13:22 35.118283 -116.226812 61 11047ft 127kts
18-Nov-20 13:23 35.135210 -116.188679 61 11047ft 127kts
18-Nov-20 13:24 35.152124 -116.150371 62 11047ft 127kts
18-Nov-20 13:25 35.168487 -116.111979 62 11047ft 127kts
18-Nov-20 13:26 35.184926 -116.073418 61 11047ft 127kts
18-Nov-20 13:27 35.201841 -116.035284 61 11047ft 127kts
18-Nov-20 13:28 35.218796 -115.997092 61 11047ft 127kts
18-Nov-20 13:29 35.235776 -115.958842 61 11047ft 127kts
18-Nov-20 13:30 35.252840 -115.920408 61 10990ft 131kts
18-Nov-20 13:31 35.270613 -115.880366 61 10793ft 135kts
18-Nov-20 13:32 35.288391 -115.839558 62 10593ft 136kts
18-Nov-20 13:33 35.305879 -115.798470 62 10393ft 136kts
18-Nov-20 13:34 35.328705 -115.761847 48 10193ft 136kts
18-Nov-20 13:35 35.353996 -115.727540 47 10022ft 134kts
18-Nov-20 13:36 35.375572 -115.699640 46 10023ft 129kts
18-Nov-20 13:37 35.399783 -115.667083 48 10023ft 129kts
18-Nov-20 13:38 35.424028 -115.634592 47 10023ft 129kts
18-Nov-20 13:39 35.448299 -115.602155 47 10023ft 129kts
18-Nov-20 13:40 35.472728 -115.569727 46 10023ft 129kts
18-Nov-20 13:41 35.496950 -115.537347 47 10023ft 129kts
18-Nov-20 13:42 35.521255 -115.504846 46 10023ft 129kts
18-Nov-20 13:43 35.545675 -115.472184 46 9950ft 134kts
18-Nov-20 13:44 35.571766 -115.437270 46 9586ft 139kts
18-Nov-20 13:45 35.598526 -115.401449 46 9096ft 143kts
18-Nov-20 13:46 35.625232 -115.365694 46 8696ft 141kts
18-Nov-20 13:47 35.651870 -115.330022 47 8295ft 141kts
18-Nov-20 13:48 35.678179 -115.294782 47 8024ft 135kts
18-Nov-20 13:49 35.702940 -115.261617 47 8025ft 130kts
18-Nov-20 13:50 35.726685 -115.229797 47 8025ft 125kts
18-Nov-20 13:51 35.750329 -115.198112 47 8026ft 126kts
18-Nov-20 13:52 35.775125 -115.167775 25 8025ft 126kts
18-Nov-20 13:53 35.810294 -115.157344 12 7602ft 131kts
18-Nov-20 13:54 35.845633 -115.147726 12 7098ft 126kts
18-Nov-20 13:55 35.876559 -115.139324 12 7019ft 106kts
18-Nov-20 13:56 35.905638 -115.131430 12 7021ft 107kts
18-Nov-20 13:57 35.935010 -115.123449 12 7021ft 108kts
18-Nov-20 13:58 35.964367 -115.115466 12 7021ft 108kts
18-Nov-20 13:59 35.993766 -115.107467 12 7021ft 108kts
18-Nov-20 14:00 36.023406 -115.098373 23 6900ft 116kts
18-Nov-20 14:01 36.054881 -115.081174 21 6382ft 125kts
18-Nov-20 14:02 36.086831 -115.065538 22 5734ft 117kts
18-Nov-20 14:03 36.114056 -115.050867 21 5503ft 98kts
18-Nov-20 14:04 36.139394 -115.038146 21 5531ft 99kts
18-Nov-20 14:05 36.164795 -115.025306 22 5545ft 99kts
18-Nov-20 14:06 36.190262 -115.012422 22 5544ft 99kts
18-Nov-20 14:07 36.211044 -115.018608 257 5487ft 102kts
18-Nov-20 14:08 36.191178 -115.042544 229 5410ft 101kts
18-Nov-20 14:09 36.173657 -115.069465 231 5092ft 99kts
18-Nov-20 14:10 36.157811 -115.098499 239 4530ft 102kts
18-Nov-20 14:11 36.142742 -115.128022 227 3775ft 105kts
18-Nov-20 14:12 36.117781 -115.145668 205 2801ft 96kts
18-Nov-20 14:13 36.096693 -115.158116 204 2101ft 62kts
18-Nov-20 14:14 36.089321 -115.163220 256 2128ft 13kts
18-Nov-20 14:15 36.089302 -115.165258 270 2135ft 7kts

Navigation Log

Ident Type
Flight plan parsing failed, navigation log unavailable